sensor_id;sensor_type;location;lat;lon;timestamp;pressure;altitude;pressure_sealevel;temperature;humidity
47761;BME280;33524;55.434;38.520;2023-04-28T00:00:56;99790.19;;;10.36;61.30
47761;BME280;33524;55.434;38.520;2023-04-28T00:03:24;99804.84;;;10.50;61.05
47761;BME280;33524;55.434;38.520;2023-04-28T00:05:53;99800.06;;;10.44;60.68
47761;BME280;33524;55.434;38.520;2023-04-28T00:08:21;99807.03;;;10.34;62.01
47761;BME280;33524;55.434;38.520;2023-04-28T00:10:54;99799.16;;;10.34;62.78
47761;BME280;33524;55.434;38.520;2023-04-28T00:13:22;99795.41;;;10.25;63.69
47761;BME280;33524;55.434;38.520;2023-04-28T00:15:51;99797.69;;;10.41;61.07
47761;BME280;33524;55.434;38.520;2023-04-28T00:18:23;99802.69;;;10.44;62.35
47761;BME280;33524;55.434;38.520;2023-04-28T00:20:51;99786.13;;;10.32;61.57
47761;BME280;33524;55.434;38.520;2023-04-28T00:23:19;99794.34;;;10.39;61.54
47761;BME280;33524;55.434;38.520;2023-04-28T00:25:51;99792.41;;;10.41;61.61
47761;BME280;33524;55.434;38.520;2023-04-28T00:28:20;99793.91;;;10.34;61.81
47761;BME280;33524;55.434;38.520;2023-04-28T00:31:02;99786.00;;;10.34;61.97
47761;BME280;33524;55.434;38.520;2023-04-28T00:33:44;99776.31;;;10.23;62.20
47761;BME280;33524;55.434;38.520;2023-04-28T00:36:13;99762.25;;;10.13;61.83
47761;BME280;33524;55.434;38.520;2023-04-28T00:38:41;99783.62;;;10.30;61.77
47761;BME280;33524;55.434;38.520;2023-04-28T00:41:09;99784.44;;;10.31;60.67
47761;BME280;33524;55.434;38.520;2023-04-28T00:43:48;99791.84;;;10.26;61.23
47761;BME280;33524;55.434;38.520;2023-04-28T00:46:21;99787.09;;;10.20;61.49
47761;BME280;33524;55.434;38.520;2023-04-28T00:48:52;99787.47;;;10.04;61.30
47761;BME280;33524;55.434;38.520;2023-04-28T00:51:20;99785.78;;;10.14;60.19
47761;BME280;33524;55.434;38.520;2023-04-28T00:53:49;99779.56;;;10.15;60.84
47761;BME280;33524;55.434;38.520;2023-04-28T00:56:18;99762.50;;;9.98;61.08
47761;BME280;33524;55.434;38.520;2023-04-28T00:58:59;99791.53;;;10.08;61.99
47761;BME280;33524;55.434;38.520;2023-04-28T01:01:28;99768.12;;;10.05;61.34
47761;BME280;33524;55.434;38.520;2023-04-28T01:03:56;99786.88;;;10.12;60.89
47761;BME280;33524;55.434;38.520;2023-04-28T01:06:26;99777.78;;;10.16;60.72
47761;BME280;33524;55.434;38.520;2023-04-28T01:08:57;99783.22;;;9.69;63.31
47761;BME280;33524;55.434;38.520;2023-04-28T01:11:25;99782.88;;;9.62;65.45
47761;BME280;33524;55.434;38.520;2023-04-28T01:14:18;99779.41;;;9.50;67.46
47761;BME280;33524;55.434;38.520;2023-04-28T01:16:46;99788.22;;;9.83;61.01
47761;BME280;33524;55.434;38.520;2023-04-28T01:19:27;99777.94;;;9.92;60.95
47761;BME280;33524;55.434;38.520;2023-04-28T01:21:56;99783.19;;;9.92;62.17
47761;BME280;33524;55.434;38.520;2023-04-28T01:24:25;99778.44;;;9.85;62.58
47761;BME280;33524;55.434;38.520;2023-04-28T01:26:54;99785.09;;;9.89;62.56
47761;BME280;33524;55.434;38.520;2023-04-28T01:29:22;99776.50;;;9.87;62.62
47761;BME280;33524;55.434;38.520;2023-04-28T01:31:51;99787.63;;;9.91;62.59
47761;BME280;33524;55.434;38.520;2023-04-28T01:34:32;99777.34;;;9.88;62.77
47761;BME280;33524;55.434;38.520;2023-04-28T01:37:12;99792.53;;;9.84;63.80
47761;BME280;33524;55.434;38.520;2023-04-28T01:39:40;99791.44;;;9.87;62.36
47761;BME280;33524;55.434;38.520;2023-04-28T01:42:09;99798.94;;;9.92;62.90
47761;BME280;33524;55.434;38.520;2023-04-28T01:44:37;99792.53;;;9.84;62.51
47761;BME280;33524;55.434;38.520;2023-04-28T01:47:05;99783.44;;;9.77;61.93
47761;BME280;33524;55.434;38.520;2023-04-28T01:49:47;99777.22;;;9.89;60.78
47761;BME280;33524;55.434;38.520;2023-04-28T01:52:30;99792.63;;;9.94;61.34
47761;BME280;33524;55.434;38.520;2023-04-28T01:54:59;99795.94;;;9.96;61.49
47761;BME280;33524;55.434;38.520;2023-04-28T01:57:31;99796.22;;;9.93;61.53
47761;BME280;33524;55.434;38.520;2023-04-28T02:00:03;99790.88;;;9.72;62.86
47761;BME280;33524;55.434;38.520;2023-04-28T02:02:33;99795.53;;;9.80;61.88
47761;BME280;33524;55.434;38.520;2023-04-28T02:05:02;99770.81;;;9.71;62.15
47761;BME280;33524;55.434;38.520;2023-04-28T02:07:43;99790.63;;;9.75;61.65
47761;BME280;33524;55.434;38.520;2023-04-28T02:10:24;99792.28;;;9.87;60.58
47761;BME280;33524;55.434;38.520;2023-04-28T02:12:52;99802.78;;;9.87;61.17
47761;BME280;33524;55.434;38.520;2023-04-28T02:15:40;99801.94;;;9.87;61.27
47761;BME280;33524;55.434;38.520;2023-04-28T02:18:20;99804.69;;;9.85;61.72
47761;BME280;33524;55.434;38.520;2023-04-28T02:20:49;99802.81;;;9.76;61.93
47761;BME280;33524;55.434;38.520;2023-04-28T02:23:29;99794.31;;;9.84;62.96
47761;BME280;33524;55.434;38.520;2023-04-28T02:26:01;99802.78;;;9.87;62.77
47761;BME280;33524;55.434;38.520;2023-04-28T02:28:30;99795.16;;;9.84;64.05
47761;BME280;33524;55.434;38.520;2023-04-28T02:31:06;99792.88;;;9.91;63.20
47761;BME280;33524;55.434;38.520;2023-04-28T02:33:47;99800.72;;;10.02;62.92
47761;BME280;33524;55.434;38.520;2023-04-28T02:36:28;99797.03;;;9.94;63.82
47761;BME280;33524;55.434;38.520;2023-04-28T02:39:09;99792.72;;;10.04;63.39
47761;BME280;33524;55.434;38.520;2023-04-28T02:41:52;99790.81;;;10.17;62.81
47761;BME280;33524;55.434;38.520;2023-04-28T02:44:20;99793.44;;;10.17;63.00
47761;BME280;33524;55.434;38.520;2023-04-28T02:46:48;99793.44;;;10.17;62.54
47761;BME280;33524;55.434;38.520;2023-04-28T02:49:17;99789.22;;;10.26;61.31
47761;BME280;33524;55.434;38.520;2023-04-28T02:51:45;99801.03;;;10.43;60.84
47761;BME280;33524;55.434;38.520;2023-04-28T02:54:13;99800.19;;;10.42;61.66
47761;BME280;33524;55.434;38.520;2023-04-28T02:56:42;99777.97;;;10.35;61.83
47761;BME280;33524;55.434;38.520;2023-04-28T02:59:10;99794.87;;;10.54;61.25
47761;BME280;33524;55.434;38.520;2023-04-28T03:01:38;99806.19;;;10.65;61.14
47761;BME280;33524;55.434;38.520;2023-04-28T03:04:06;99832.69;;;10.74;61.04
47761;BME280;33524;55.434;38.520;2023-04-28T03:06:35;99861.56;;;10.85;60.98
47761;BME280;33524;55.434;38.520;2023-04-28T03:09:03;99862.75;;;10.92;60.80
47761;BME280;33524;55.434;38.520;2023-04-28T03:11:33;99850.09;;;10.86;61.00
47761;BME280;33524;55.434;38.520;2023-04-28T03:14:02;99843.13;;;10.96;59.87
47761;BME280;33524;55.434;38.520;2023-04-28T03:16:30;99835.66;;;11.01;60.14
47761;BME280;33524;55.434;38.520;2023-04-28T03:18:59;99842.50;;;11.04;60.53
47761;BME280;33524;55.434;38.520;2023-04-28T03:21:27;99838.56;;;10.98;63.65
47761;BME280;33524;55.434;38.520;2023-04-28T03:23:55;99839.91;;;11.14;60.16
47761;BME280;33524;55.434;38.520;2023-04-28T03:26:24;99839.41;;;11.20;60.68
47761;BME280;33524;55.434;38.520;2023-04-28T03:28:52;99837.22;;;11.25;59.98
47761;BME280;33524;55.434;38.520;2023-04-28T03:31:21;99836.00;;;11.29;59.33
47761;BME280;33524;55.434;38.520;2023-04-28T03:33:50;99845.62;;;11.40;60.60
47761;BME280;33524;55.434;38.520;2023-04-28T03:36:18;99847.84;;;11.44;59.63
47761;BME280;33524;55.434;38.520;2023-04-28T03:38:47;99837.31;;;11.44;58.91
47761;BME280;33524;55.434;38.520;2023-04-28T03:41:15;99838.22;;;11.55;58.54
47761;BME280;33524;55.434;38.520;2023-04-28T03:43:48;99846.88;;;11.66;59.29
47761;BME280;33524;55.434;38.520;2023-04-28T03:46:19;99843.59;;;11.74;58.63
47761;BME280;33524;55.434;38.520;2023-04-28T03:48:48;99817.00;;;11.87;58.18
47761;BME280;33524;55.434;38.520;2023-04-28T03:51:18;99831.25;;;12.05;57.42
47761;BME280;33524;55.434;38.520;2023-04-28T03:53:47;99827.91;;;12.13;57.53
47761;BME280;33524;55.434;38.520;2023-04-28T03:56:15;99832.53;;;12.30;57.52
47761;BME280;33524;55.434;38.520;2023-04-28T03:58:46;99831.16;;;12.46;57.17
47761;BME280;33524;55.434;38.520;2023-04-28T04:01:16;99833.00;;;12.55;57.01
47761;BME280;33524;55.434;38.520;2023-04-28T04:03:47;99838.25;;;12.75;56.36
47761;BME280;33524;55.434;38.520;2023-04-28T04:06:17;99837.84;;;12.89;55.91
47761;BME280;33524;55.434;38.520;2023-04-28T04:08:45;99845.47;;;13.02;55.83
47761;BME280;33524;55.434;38.520;2023-04-28T04:11:15;99846.16;;;13.13;55.51
47761;BME280;33524;55.434;38.520;2023-04-28T04:13:43;99849.91;;;13.40;54.42
47761;BME280;33524;55.434;38.520;2023-04-28T04:16:12;99845.34;;;13.70;53.43
47761;BME280;33524;55.434;38.520;2023-04-28T04:18:42;99844.28;;;13.90;52.81
47761;BME280;33524;55.434;38.520;2023-04-28T04:21:13;99848.31;;;13.95;52.60
47761;BME280;33524;55.434;38.520;2023-04-28T04:23:42;99839.31;;;13.87;53.42
47761;BME280;33524;55.434;38.520;2023-04-28T04:26:35;99840.47;;;14.03;52.86
47761;BME280;33524;55.434;38.520;2023-04-28T04:29:05;99844.91;;;14.12;52.68
47761;BME280;33524;55.434;38.520;2023-04-28T04:31:36;99840.44;;;14.12;57.72
47761;BME280;33524;55.434;38.520;2023-04-28T04:34:06;99837.88;;;14.21;52.92
47761;BME280;33524;55.434;38.520;2023-04-28T04:36:38;99835.97;;;14.41;54.39
47761;BME280;33524;55.434;38.520;2023-04-28T04:39:06;99832.66;;;14.92;51.58
47761;BME280;33524;55.434;38.520;2023-04-28T04:41:47;99840.78;;;15.43;50.22
47761;BME280;33524;55.434;38.520;2023-04-28T04:44:17;99838.00;;;15.71;49.76
47761;BME280;33524;55.434;38.520;2023-04-28T04:46:47;99841.16;;;16.09;48.75
47761;BME280;33524;55.434;38.520;2023-04-28T04:49:17;99843.25;;;16.48;48.48
47761;BME280;33524;55.434;38.520;2023-04-28T04:51:45;99848.31;;;17.00;47.58
47761;BME280;33524;55.434;38.520;2023-04-28T04:54:16;99854.56;;;16.66;49.70
47761;BME280;33524;55.434;38.520;2023-04-28T04:56:51;99847.53;;;16.32;53.31
47761;BME280;33524;55.434;38.520;2023-04-28T04:59:22;99863.50;;;15.98;52.61
47761;BME280;33524;55.434;38.520;2023-04-28T05:01:51;99857.00;;;15.66;54.18
47761;BME280;33524;55.434;38.520;2023-04-28T05:04:19;99871.78;;;15.43;55.90
47761;BME280;33524;55.434;38.520;2023-04-28T05:06:48;99868.00;;;15.27;55.05
47761;BME280;33524;55.434;38.520;2023-04-28T05:09:16;99864.94;;;15.14;56.08
47761;BME280;33524;55.434;38.520;2023-04-28T05:11:45;99866.97;;;15.02;58.02
47761;BME280;33524;55.434;38.520;2023-04-28T05:14:17;99877.84;;;15.17;55.20
47761;BME280;33524;55.434;38.520;2023-04-28T05:16:45;99872.06;;;15.13;55.07
47761;BME280;33524;55.434;38.520;2023-04-28T05:19:14;99850.97;;;14.86;55.80
47761;BME280;33524;55.434;38.520;2023-04-28T05:21:43;99865.81;;;14.51;62.28
47761;BME280;33524;55.434;38.520;2023-04-28T05:24:11;99862.69;;;14.65;57.71
47761;BME280;33524;55.434;38.520;2023-04-28T05:26:40;99861.25;;;14.89;56.32
47761;BME280;33524;55.434;38.520;2023-04-28T05:29:09;99857.16;;;14.59;59.96
47761;BME280;33524;55.434;38.520;2023-04-28T05:31:37;99854.06;;;14.81;58.84
47761;BME280;33524;55.434;38.520;2023-04-28T05:34:05;99849.91;;;14.79;56.11
47761;BME280;33524;55.434;38.520;2023-04-28T05:36:33;99857.72;;;14.52;62.00
47761;BME280;33524;55.434;38.520;2023-04-28T05:39:02;99859.28;;;14.73;57.37
47761;BME280;33524;55.434;38.520;2023-04-28T05:41:30;99856.19;;;14.78;60.83
47761;BME280;33524;55.434;38.520;2023-04-28T05:43:58;99855.09;;;15.06;60.85
47761;BME280;33524;55.434;38.520;2023-04-28T05:46:26;99856.78;;;15.60;53.10
47761;BME280;33524;55.434;38.520;2023-04-28T05:48:57;99858.75;;;15.76;55.43
47761;BME280;33524;55.434;38.520;2023-04-28T05:51:26;99847.81;;;15.79;57.43
47761;BME280;33524;55.434;38.520;2023-04-28T05:53:55;99845.44;;;16.10;51.67
47761;BME280;33524;55.434;38.520;2023-04-28T05:56:25;99840.19;;;16.26;51.95
47761;BME280;33524;55.434;38.520;2023-04-28T05:58:54;99846.69;;;16.32;51.60
47761;BME280;33524;55.434;38.520;2023-04-28T06:01:22;99849.03;;;16.43;53.95
47761;BME280;33524;55.434;38.520;2023-04-28T06:03:51;99852.19;;;16.39;52.96
47761;BME280;33524;55.434;38.520;2023-04-28T06:06:20;99845.50;;;16.26;55.29
47761;BME280;33524;55.434;38.520;2023-04-28T06:08:49;99855.66;;;16.31;53.46
47761;BME280;33524;55.434;38.520;2023-04-28T06:11:17;99859.03;;;16.66;52.36
47761;BME280;33524;55.434;38.520;2023-04-28T06:13:50;99870.22;;;16.94;53.52
47761;BME280;33524;55.434;38.520;2023-04-28T06:16:18;99878.19;;;17.02;52.40
47761;BME280;33524;55.434;38.520;2023-04-28T06:18:47;99872.37;;;17.23;50.39
47761;BME280;33524;55.434;38.520;2023-04-28T06:21:16;99869.16;;;17.61;50.00
47761;BME280;33524;55.434;38.520;2023-04-28T06:23:45;99849.88;;;17.59;49.40
47761;BME280;33524;55.434;38.520;2023-04-28T06:26:13;99871.03;;;18.08;48.19
47761;BME280;33524;55.434;38.520;2023-04-28T06:28:44;99861.97;;;18.33;52.42
47761;BME280;33524;55.434;38.520;2023-04-28T06:31:13;99853.75;;;18.66;46.86
47761;BME280;33524;55.434;38.520;2023-04-28T06:33:41;99862.06;;;18.71;47.15
47761;BME280;33524;55.434;38.520;2023-04-28T06:36:09;99873.66;;;18.79;47.55
47761;BME280;33524;55.434;38.520;2023-04-28T06:38:40;99873.34;;;18.82;48.24
47761;BME280;33524;55.434;38.520;2023-04-28T06:41:11;99867.22;;;18.96;47.66
47761;BME280;33524;55.434;38.520;2023-04-28T06:43:40;99870.91;;;19.33;46.68
47761;BME280;33524;55.434;38.520;2023-04-28T06:46:09;99855.38;;;19.36;46.65
47761;BME280;33524;55.434;38.520;2023-04-28T06:48:38;99866.34;;;19.56;46.35
47761;BME280;33524;55.434;38.520;2023-04-28T06:51:06;99858.97;;;19.29;47.45
47761;BME280;33524;55.434;38.520;2023-04-28T06:53:35;99860.19;;;19.41;47.44
47761;BME280;33524;55.434;38.520;2023-04-28T06:56:08;99865.47;;;19.79;46.54
47761;BME280;33524;55.434;38.520;2023-04-28T06:58:38;99864.34;;;19.73;46.99
47761;BME280;33524;55.434;38.520;2023-04-28T07:01:06;99866.47;;;19.78;46.86
47761;BME280;33524;55.434;38.520;2023-04-28T07:03:34;99849.88;;;19.53;47.69
47761;BME280;33524;55.434;38.520;2023-04-28T07:06:03;99865.53;;;19.18;48.44
47761;BME280;33524;55.434;38.520;2023-04-28T07:08:32;99871.75;;;19.33;48.08
47761;BME280;33524;55.434;38.520;2023-04-28T07:11:00;99868.28;;;19.48;47.99
47761;BME280;33524;55.434;38.520;2023-04-28T07:13:50;99869.41;;;19.53;47.88
47761;BME280;33524;55.434;38.520;2023-04-28T07:16:21;99871.81;;;20.08;46.24
47761;BME280;33524;55.434;38.520;2023-04-28T07:18:50;99866.41;;;20.37;45.64
47761;BME280;33524;55.434;38.520;2023-04-28T07:21:20;99860.41;;;20.35;46.23
47761;BME280;33524;55.434;38.520;2023-04-28T07:24:00;99856.22;;;20.63;45.71
47761;BME280;33524;55.434;38.520;2023-04-28T07:26:28;99863.44;;;20.84;45.93
47761;BME280;33524;55.434;38.520;2023-04-28T07:28:56;99859.78;;;21.41;44.23
47761;BME280;33524;55.434;38.520;2023-04-28T07:31:24;99856.56;;;21.24;45.10
47761;BME280;33524;55.434;38.520;2023-04-28T07:34:06;99841.34;;;21.25;44.98
47761;BME280;33524;55.434;38.520;2023-04-28T07:36:34;99844.19;;;21.73;43.92
47761;BME280;33524;55.434;38.520;2023-04-28T07:39:03;99851.94;;;21.61;44.41
47761;BME280;33524;55.434;38.520;2023-04-28T07:41:40;99831.19;;;21.13;45.42
47761;BME280;33524;55.434;38.520;2023-04-28T07:44:21;99854.41;;;20.85;46.80
47761;BME280;33524;55.434;38.520;2023-04-28T07:46:49;99850.06;;;21.33;45.53
47761;BME280;33524;55.434;38.520;2023-04-28T07:49:18;99855.34;;;21.48;45.20
47761;BME280;33524;55.434;38.520;2023-04-28T07:51:46;99854.63;;;21.11;46.61
47761;BME280;33524;55.434;38.520;2023-04-28T07:54:15;99857.03;;;21.06;46.08
47761;BME280;33524;55.434;38.520;2023-04-28T07:56:55;99858.22;;;20.75;47.31
47761;BME280;33524;55.434;38.520;2023-04-28T07:59:25;99853.88;;;20.38;47.81
47761;BME280;33524;55.434;38.520;2023-04-28T08:01:53;99856.81;;;19.92;48.84
47761;BME280;33524;55.434;38.520;2023-04-28T08:04:22;99862.50;;;19.74;49.82
47761;BME280;33524;55.434;38.520;2023-04-28T08:06:52;99851.41;;;20.36;48.58
47761;BME280;33524;55.434;38.520;2023-04-28T08:09:34;99852.41;;;20.93;46.96
47761;BME280;33524;55.434;38.520;2023-04-28T08:12:04;99849.66;;;21.08;46.46
47761;BME280;33524;55.434;38.520;2023-04-28T08:14:38;99852.53;;;20.85;46.93
47761;BME280;33524;55.434;38.520;2023-04-28T08:17:12;99845.44;;;20.34;48.19
47761;BME280;33524;55.434;38.520;2023-04-28T08:19:40;99840.84;;;21.14;46.49
47761;BME280;33524;55.434;38.520;2023-04-28T08:22:08;99841.97;;;20.99;46.89
47761;BME280;33524;55.434;38.520;2023-04-28T08:24:36;99828.53;;;21.13;46.64
47761;BME280;33524;55.434;38.520;2023-04-28T08:27:06;99839.50;;;21.88;45.26
47761;BME280;33524;55.434;38.520;2023-04-28T08:29:35;99839.81;;;20.87;47.60
47761;BME280;33524;55.434;38.520;2023-04-28T08:32:03;99852.97;;;20.31;48.87
47761;BME280;33524;55.434;38.520;2023-04-28T08:34:33;99837.84;;;21.46;46.47
47761;BME280;33524;55.434;38.520;2023-04-28T08:37:01;99836.22;;;21.86;45.34
47761;BME280;33524;55.434;38.520;2023-04-28T08:39:30;99825.41;;;21.66;45.44
47761;BME280;33524;55.434;38.520;2023-04-28T08:42:04;99834.00;;;21.05;46.94
47761;BME280;33524;55.434;38.520;2023-04-28T08:44:37;99836.06;;;21.03;47.48
47761;BME280;33524;55.434;38.520;2023-04-28T08:47:13;99830.44;;;21.20;46.55
47761;BME280;33524;55.434;38.520;2023-04-28T08:49:43;99834.53;;;20.72;47.55
47761;BME280;33524;55.434;38.520;2023-04-28T08:52:14;99834.88;;;21.12;46.98
47761;BME280;33524;55.434;38.520;2023-04-28T08:54:43;99837.34;;;20.64;47.72
47761;BME280;33524;55.434;38.520;2023-04-28T08:57:15;99830.78;;;20.67;48.27
47761;BME280;33524;55.434;38.520;2023-04-28T08:59:44;99830.34;;;20.63;47.57
47761;BME280;33524;55.434;38.520;2023-04-28T09:02:12;99821.75;;;20.31;48.31
47761;BME280;33524;55.434;38.520;2023-04-28T09:04:40;99823.84;;;20.51;48.26
47761;BME280;33524;55.434;38.520;2023-04-28T09:07:15;99810.72;;;20.34;47.97
47761;BME280;33524;55.434;38.520;2023-04-28T09:09:44;99812.22;;;20.44;48.23
47761;BME280;33524;55.434;38.520;2023-04-28T09:12:12;99821.16;;;20.14;49.23
47761;BME280;33524;55.434;38.520;2023-04-28T09:14:57;99818.91;;;20.33;48.64
47761;BME280;33524;55.434;38.520;2023-04-28T09:17:26;99820.41;;;20.57;48.04
47761;BME280;33524;55.434;38.520;2023-04-28T09:19:54;99826.44;;;20.87;47.91
47761;BME280;33524;55.434;38.520;2023-04-28T09:22:27;99817.47;;;21.45;46.03
47761;BME280;33524;55.434;38.520;2023-04-28T09:24:56;99826.81;;;21.34;46.91
47761;BME280;33524;55.434;38.520;2023-04-28T09:27:28;99813.97;;;21.86;45.67
47761;BME280;33524;55.434;38.520;2023-04-28T09:29:56;99818.34;;;21.93;45.17
47761;BME280;33524;55.434;38.520;2023-04-28T09:32:24;99821.41;;;21.90;45.20
47761;BME280;33524;55.434;38.520;2023-04-28T09:34:56;99812.72;;;21.82;45.09
47761;BME280;33524;55.434;38.520;2023-04-28T09:37:26;99817.66;;;21.43;46.46
47761;BME280;33524;55.434;38.520;2023-04-28T09:40:04;99816.63;;;21.44;46.32
47761;BME280;33524;55.434;38.520;2023-04-28T09:42:36;99816.94;;;20.78;47.57
47761;BME280;33524;55.434;38.520;2023-04-28T09:45:14;99818.50;;;20.51;47.46
47761;BME280;33524;55.434;38.520;2023-04-28T09:47:45;99823.03;;;20.35;48.11
47761;BME280;33524;55.434;38.520;2023-04-28T09:50:15;99826.34;;;19.86;49.76
47761;BME280;33524;55.434;38.520;2023-04-28T09:52:56;99833.97;;;19.45;51.68
47761;BME280;33524;55.434;38.520;2023-04-28T09:55:27;99842.81;;;19.45;51.54
47761;BME280;33524;55.434;38.520;2023-04-28T09:57:56;99845.91;;;18.10;57.66
47761;BME280;33524;55.434;38.520;2023-04-28T10:00:29;99848.97;;;17.99;57.41
47761;BME280;33524;55.434;38.520;2023-04-28T10:02:59;99859.19;;;17.54;62.13
47761;BME280;33524;55.434;38.520;2023-04-28T10:05:28;99851.44;;;17.37;62.78
47761;BME280;33524;55.434;38.520;2023-04-28T10:07:57;99850.44;;;18.02;60.02
47761;BME280;33524;55.434;38.520;2023-04-28T10:10:31;99845.62;;;18.05;61.09
47761;BME280;33524;55.434;38.520;2023-04-28T10:13:00;99839.78;;;18.10;61.46
47761;BME280;33524;55.434;38.520;2023-04-28T10:15:31;99844.47;;;18.00;58.29
47761;BME280;33524;55.434;38.520;2023-04-28T10:18:01;99849.69;;;17.77;60.52
47761;BME280;33524;55.434;38.520;2023-04-28T10:20:31;99842.19;;;17.80;57.49
47761;BME280;33524;55.434;38.520;2023-04-28T10:25:58;99876.12;;;17.78;57.34
47761;BME280;33524;55.434;38.520;2023-04-28T10:28:27;99871.84;;;17.44;60.80
47761;BME280;33524;55.434;38.520;2023-04-28T10:31:09;99883.66;;;16.25;69.76
47761;BME280;33524;55.434;38.520;2023-04-28T10:33:40;99891.63;;;16.25;64.97
47761;BME280;33524;55.434;38.520;2023-04-28T10:36:55;99897.84;;;15.56;73.73
47761;BME280;33524;55.434;38.520;2023-04-28T10:39:25;99912.06;;;15.10;71.47
47761;BME280;33524;55.434;38.520;2023-04-28T10:41:53;99914.25;;;14.61;77.27
47761;BME280;33524;55.434;38.520;2023-04-28T10:47:01;99895.00;;;15.05;73.03
47761;BME280;33524;55.434;38.520;2023-04-28T10:50:03;99899.34;;;13.67;80.97
47761;BME280;33524;55.434;38.520;2023-04-28T10:55:31;99914.81;;;13.52;85.31
47761;BME280;33524;55.434;38.520;2023-04-28T11:00:47;99904.34;;;14.36;83.51
47761;BME280;33524;55.434;38.520;2023-04-28T11:03:48;99900.31;;;14.59;83.00
47761;BME280;33524;55.434;38.520;2023-04-28T11:06:34;99905.94;;;14.92;82.27
47761;BME280;33524;55.434;38.520;2023-04-28T11:14:37;99910.37;;;15.45;80.98
47761;BME280;33524;55.434;38.520;2023-04-28T11:17:09;99914.34;;;15.93;72.85
47761;BME280;33524;55.434;38.520;2023-04-28T11:19:44;99913.97;;;15.62;74.35
47761;BME280;33524;55.434;38.520;2023-04-28T11:22:17;99918.75;;;14.97;78.87
47761;BME280;33524;55.434;38.520;2023-04-28T11:24:59;99914.81;;;14.83;78.96
47761;BME280;33524;55.434;38.520;2023-04-28T11:27:32;99905.34;;;14.62;77.21
47761;BME280;33524;55.434;38.520;2023-04-28T11:30:01;99907.16;;;14.80;78.19
47761;BME280;33524;55.434;38.520;2023-04-28T11:32:34;99899.72;;;14.65;77.48
47761;BME280;33524;55.434;38.520;2023-04-28T11:35:04;99897.62;;;14.41;82.39
47761;BME280;33524;55.434;38.520;2023-04-28T11:38:01;99898.38;;;14.33;81.70
47761;BME280;33524;55.434;38.520;2023-04-28T11:40:31;99877.06;;;14.35;76.08
47761;BME280;33524;55.434;38.520;2023-04-28T11:42:59;99891.41;;;14.60;81.30
47761;BME280;33524;55.434;38.520;2023-04-28T11:45:28;99891.69;;;14.57;83.65
47761;BME280;33524;55.434;38.520;2023-04-28T11:47:56;99882.75;;;14.68;84.20
47761;BME280;33524;55.434;38.520;2023-04-28T11:50:35;99886.16;;;15.40;77.81
47761;BME280;33524;55.434;38.520;2023-04-28T11:53:05;99879.63;;;15.08;84.18
47761;BME280;33524;55.434;38.520;2023-04-28T11:55:41;99876.28;;;15.06;82.83
47761;BME280;33524;55.434;38.520;2023-04-28T11:58:23;99863.56;;;15.10;77.17
47761;BME280;33524;55.434;38.520;2023-04-28T12:01:11;99850.75;;;15.23;77.48
47761;BME280;33524;55.434;38.520;2023-04-28T12:03:44;99835.44;;;15.35;77.83
47761;BME280;33524;55.434;38.520;2023-04-28T12:06:17;99851.25;;;15.71;82.32
47761;BME280;33524;55.434;38.520;2023-04-28T12:08:46;99858.41;;;16.13;81.45
47761;BME280;33524;55.434;38.520;2023-04-28T12:11:14;99856.16;;;16.34;79.66
47761;BME280;33524;55.434;38.520;2023-04-28T12:14:05;99851.69;;;16.35;81.64
47761;BME280;33524;55.434;38.520;2023-04-28T12:16:40;99853.16;;;16.29;79.37
47761;BME280;33524;55.434;38.520;2023-04-28T12:19:11;99853.81;;;16.23;78.84
47761;BME280;33524;55.434;38.520;2023-04-28T12:21:40;99856.44;;;16.15;79.29
47761;BME280;33524;55.434;38.520;2023-04-28T12:24:21;99862.50;;;16.50;75.78
47761;BME280;33524;55.434;38.520;2023-04-28T12:26:52;99851.81;;;16.25;80.43
47761;BME280;33524;55.434;38.520;2023-04-28T12:29:37;99856.22;;;16.59;73.73
47761;BME280;33524;55.434;38.520;2023-04-28T12:32:08;99853.47;;;17.18;73.39
47761;BME280;33524;55.434;38.520;2023-04-28T12:34:49;99859.25;;;17.30;71.98
47761;BME280;33524;55.434;38.520;2023-04-28T12:37:18;99840.28;;;17.49;77.06
47761;BME280;33524;55.434;38.520;2023-04-28T12:39:48;99848.03;;;18.23;74.35
47761;BME280;33524;55.434;38.520;2023-04-28T12:42:16;99846.28;;;18.62;70.56
47761;BME280;33524;55.434;38.520;2023-04-28T12:44:45;99843.78;;;18.91;72.46
47761;BME280;33524;55.434;38.520;2023-04-28T12:47:13;99837.50;;;19.75;69.39
47761;BME280;33524;55.434;38.520;2023-04-28T12:49:41;99834.50;;;19.70;69.31
47761;BME280;33524;55.434;38.520;2023-04-28T12:52:10;99844.69;;;19.36;68.23
47761;BME280;33524;55.434;38.520;2023-04-28T12:54:38;99832.31;;;19.06;59.94
47761;BME280;33524;55.434;38.520;2023-04-28T12:57:16;99834.56;;;18.17;68.33
47761;BME280;33524;55.434;38.520;2023-04-28T12:59:45;99829.38;;;17.75;65.68
47761;BME280;33524;55.434;38.520;2023-04-28T13:02:15;99831.81;;;18.02;67.37
47761;BME280;33524;55.434;38.520;2023-04-28T13:04:44;99838.16;;;18.01;63.67
47761;BME280;33524;55.434;38.520;2023-04-28T13:07:18;99823.75;;;17.79;65.64
47761;BME280;33524;55.434;38.520;2023-04-28T13:09:46;99831.78;;;18.41;59.45
47761;BME280;33524;55.434;38.520;2023-04-28T13:12:14;99821.91;;;17.79;66.23
47761;BME280;33524;55.434;38.520;2023-04-28T13:14:43;99825.72;;;17.04;69.66
47761;BME280;33524;55.434;38.520;2023-04-28T13:17:11;99817.56;;;16.73;71.13
47761;BME280;33524;55.434;38.520;2023-04-28T13:19:40;99826.34;;;16.73;69.33
47761;BME280;33524;55.434;38.520;2023-04-28T13:22:09;99823.94;;;18.17;61.70
47761;BME280;33524;55.434;38.520;2023-04-28T13:24:37;99822.31;;;18.39;58.91
47761;BME280;33524;55.434;38.520;2023-04-28T13:27:10;99815.28;;;18.14;63.69
47761;BME280;33524;55.434;38.520;2023-04-28T13:29:43;99825.84;;;18.00;66.68